< Typhoon 196635 1967 Season Typhoon 196702 >
Typhoon 196701 (RUBY)
General InformationTrack Information on Google Maps || Disaster Info.ResourceGoogle EarthGE AnimationAtom FeedGeoJSON
Detalied Best Track (Time Zone = UTC)
Year Month Day Hour Lat. Long. Pressure (hPa) Wind (kt) Class Image Chart
1967 1 28 06 5.1 140.2 1000 0 2 -- Chart
1967 1 28 12 5.0 140.1 998 0 2 -- Chart
1967 1 28 18 5.0 139.9 998 0 2 -- Chart
1967 1 29 00 5.0 139.7 996 0 2 -- Chart
1967 1 29 06 5.4 139.2 998 0 2 -- Chart
1967 1 29 12 5.9 139.3 1000 0 2 -- Chart
1967 1 29 18 5.8 139.6 1000 0 2 -- Chart
1967 1 30 00 5.6 139.6 1000 0 2 -- Chart
1967 1 30 06 5.5 139.5 1000 0 2 -- Chart
1967 1 30 12 5.5 139.3 1000 0 2 -- Chart
1967 1 30 18 5.5 139.0 1000 0 2 -- Chart
1967 1 31 00 5.6 138.9 1000 0 2 -- Chart
1967 1 31 06 5.7 138.6 1000 0 2 -- Chart
1967 1 31 12 5.8 137.9 1000 0 2 -- Chart
1967 1 31 18 6.0 137.1 1000 0 2 -- Chart
1967 2 1 00 6.1 136.3 1002 0 2 -- Chart
1967 2 1 06 6.4 135.3 1002 0 2 -- Chart
1967 2 1 12 6.8 134.2 1004 0 2 -- Chart
1967 2 1 18 7.0 133.5 1004 0 2 -- Chart
1967 2 2 00 7.2 133.0 1004 0 2 -- Chart
1967 2 2 06 7.3 132.5 1002 0 2 -- Chart
1967 2 2 12 7.5 132.1 1002 0 2 -- Chart
1967 2 2 18 7.7 131.7 1002 0 2 -- Chart
1967 2 3 00 8.0 131.3 1002 0 2 -- Chart
1967 2 3 06 8.5 131.2 1002 0 2 -- Chart
1967 2 3 12 9.0 131.2 1002 0 2 -- Chart
1967 2 3 18 9.5 131.3 1002 0 2 -- Chart
1967 2 4 00 10.0 131.5 1002 0 2 -- Chart
1967 2 4 06 10.5 131.6 1002 0 2 -- Chart
1967 2 4 12 10.8 131.7 1002 0 2 -- Chart
1967 2 4 18 11.3 131.9 1002 0 2 -- Chart
1967 2 5 00 11.8 132.0 1002 0 2 -- Chart
1967 2 5 06 11.8 131.8 1000 0 9 -- Chart
1967 2 5 12 11.3 131.4 1000 0 9 -- Chart
1967 2 5 18 10.8 131.1 1000 0 9 -- Chart
1967 2 6 00 9.8 131.1 1002 0 9 -- Chart
1967 2 6 06 8.8 131.5 1002 0 9 -- Chart
1967 2 6 12 8.1 130.9 1002 0 9 -- Chart
1967 2 6 18 7.4 130.8 1002 0 9 -- Chart
1967 2 7 00 6.9 130.6 1002 0 6 -- Chart
1967 2 7 06 6.7 130.3 1002 0 6 -- Chart
1967 2 7 12 6.6 129.7 1002 0 6 -- Chart
1967 2 7 18 6.4 129.0 1002 0 6 -- Chart
1967 2 8 00 6.1 128.1 1002 0 6 -- Chart
1967 2 8 06 6.1 127.9 1002 0 6 -- Chart
1967 2 8 12 6.2 127.8 1002 0 6 -- Chart
1967 2 8 18 6.3 127.6 1002 0 6 -- Chart
1967 2 9 00 6.6 127.4 1004 0 6 -- Chart
1967 2 9 06 6.8 127.2 1004 0 6 -- Chart
1967 2 9 12 7.0 127.0 1004 0 6 -- Chart
Japan Meteorological Agency Best Track Data | Correction Date : 1989-06-01
< Typhoon 196635 1967 Season Typhoon 196702 >

Help